createdAt,value
2018-02-07T00:00:00.455Z,54.17
2018-02-07T00:02:28.001Z,50.65
2018-02-07T00:04:55.571Z,55.10
2018-02-07T00:07:23.115Z,53.35
2018-02-07T00:09:50.677Z,52.05
2018-02-07T00:12:18.221Z,59.63
2018-02-07T00:14:45.790Z,55.53
2018-02-07T00:17:13.338Z,55.70
2018-02-07T00:19:40.971Z,54.15
2018-02-07T00:22:09.294Z,47.35
2018-02-07T00:24:36.845Z,48.23
2018-02-07T00:27:04.415Z,48.63
2018-02-07T00:29:32.091Z,54.47
2018-02-07T00:32:00.116Z,55.08
2018-02-07T00:34:27.653Z,50.83
2018-02-07T00:36:55.998Z,51.72
2018-02-07T00:39:23.551Z,56.13
2018-02-07T00:41:51.128Z,50.15
2018-02-07T00:44:18.666Z,50.00
2018-02-07T00:46:46.235Z,54.35
2018-02-07T00:49:13.785Z,48.97
2018-02-07T00:51:41.354Z,44.92
2018-02-07T00:54:08.904Z,56.40
2018-02-07T00:56:36.482Z,49.33
2018-02-07T00:59:04.023Z,47.43
2018-02-07T01:01:31.634Z,47.20
2018-02-07T01:03:59.960Z,44.50
2018-02-07T01:06:27.693Z,46.17
2018-02-07T01:08:56.226Z,52.93
2018-02-07T01:11:23.880Z,45.22
2018-02-07T01:13:51.457Z,47.30
2018-02-07T01:16:19.809Z,53.25
2018-02-07T01:18:47.341Z,52.13
2018-02-07T01:21:14.906Z,46.30
2018-02-07T01:23:42.451Z,51.33
2018-02-07T01:26:10.026Z,47.83
2018-02-07T01:28:37.810Z,49.43
2018-02-07T01:31:05.390Z,49.78
2018-02-07T01:33:32.930Z,48.20
2018-02-07T01:36:00.486Z,48.73
2018-02-07T01:38:28.034Z,46.80
2018-02-07T01:40:56.387Z,50.90
2018-02-07T01:43:24.692Z,47.90
2018-02-07T01:45:52.376Z,48.57
2018-02-07T01:48:20.690Z,53.93
2018-02-07T01:50:48.285Z,59.47
2018-02-07T01:53:15.851Z,48.03
2018-02-07T01:55:43.426Z,51.27
2018-02-07T01:58:10.990Z,44.47
2018-02-07T02:00:38.570Z,43.67
2018-02-07T02:03:06.850Z,45.50
2018-02-07T02:05:34.425Z,55.15
2018-02-07T02:08:01.969Z,51.83
2018-02-07T02:10:29.537Z,53.92
2018-02-07T02:12:57.077Z,47.43
2018-02-07T02:15:24.774Z,48.28
2018-02-07T02:17:53.089Z,46.60
2018-02-07T02:20:20.653Z,53.38
2018-02-07T02:22:48.194Z,52.08
2018-02-07T02:25:15.769Z,46.88
2018-02-07T02:27:43.307Z,50.20
2018-02-07T02:30:11.648Z,47.67
2018-02-07T02:32:39.205Z,51.10
2018-02-07T02:35:06.758Z,50.73
2018-02-07T02:37:34.322Z,52.45
2018-02-07T02:40:01.872Z,45.83
2018-02-07T02:42:29.433Z,46.23
2018-02-07T02:44:56.970Z,53.00
2018-02-07T02:47:24.523Z,51.30
2018-02-07T02:49:52.062Z,43.73
2018-02-07T02:52:20.379Z,42.27
2018-02-07T02:54:47.917Z,48.67
2018-02-07T02:57:15.484Z,51.30
2018-02-07T02:59:43.251Z,51.07
2018-02-07T03:02:10.935Z,52.50
2018-02-07T03:04:38.639Z,46.20
2018-02-07T03:07:06.970Z,48.75
2018-02-07T03:09:34.509Z,48.10
2018-02-07T03:12:02.076Z,47.58
2018-02-07T03:14:29.617Z,47.13
2018-02-07T03:16:57.201Z,56.40
2018-02-07T03:19:24.797Z,55.58
2018-02-07T03:21:52.436Z,49.35
2018-02-07T03:24:20.834Z,52.17
2018-02-07T03:26:48.407Z,50.12
2018-02-07T03:29:16.078Z,47.13
2018-02-07T03:31:43.927Z,50.63
2018-02-07T03:34:11.806Z,51.37
2018-02-07T03:36:40.159Z,51.42
2018-02-07T03:39:07.743Z,47.92
2018-02-07T03:41:35.495Z,50.53
2018-02-07T03:44:03.064Z,49.25
2018-02-07T03:46:30.678Z,51.60
2018-02-07T03:48:58.220Z,45.65
2018-02-07T03:51:25.792Z,47.17
2018-02-07T03:53:53.337Z,50.35
2018-02-07T03:56:20.906Z,48.15
2018-02-07T03:58:48.439Z,48.97
2018-02-07T04:01:15.999Z,49.00
2018-02-07T04:03:44.314Z,47.28
2018-02-07T04:06:11.878Z,45.70
2018-02-07T04:08:39.428Z,49.40
2018-02-07T04:11:06.994Z,44.83
2018-02-07T04:13:34.529Z,43.17
2018-02-07T04:16:02.857Z,47.70
2018-02-07T04:18:30.401Z,49.75
2018-02-07T04:20:57.973Z,49.78
2018-02-07T04:23:25.505Z,48.23
2018-02-07T04:25:53.066Z,45.40
2018-02-07T04:28:20.614Z,53.05
2018-02-07T04:30:48.175Z,54.50
2018-02-07T04:33:15.715Z,59.80
2018-02-07T04:35:44.054Z,48.95
2018-02-07T04:38:11.598Z,46.15
2018-02-07T04:40:39.134Z,49.55
2018-02-07T04:43:06.707Z,50.12
2018-02-07T04:45:34.241Z,53.42
2018-02-07T04:48:02.576Z,62.17
2018-02-07T04:50:30.130Z,50.95
2018-02-07T04:52:57.697Z,50.42
2018-02-07T04:55:25.232Z,48.37
2018-02-07T04:57:52.798Z,50.70
2018-02-07T05:00:20.342Z,52.47
2018-02-07T05:02:47.912Z,52.88
2018-02-07T05:05:15.460Z,59.77
2018-02-07T05:07:43.027Z,55.40
2018-02-07T05:10:10.569Z,49.53
2018-02-07T05:12:38.131Z,53.85
2018-02-07T05:15:05.678Z,48.67
2018-02-07T05:17:34.008Z,49.47
2018-02-07T05:20:01.542Z,56.13
2018-02-07T05:22:29.107Z,52.30
2018-02-07T05:24:56.644Z,52.35
2018-02-07T05:27:24.206Z,44.53
2018-02-07T05:29:51.755Z,48.25
2018-02-07T05:32:20.087Z,51.63
2018-02-07T05:34:47.624Z,48.60
2018-02-07T05:37:15.194Z,46.15
2018-02-07T05:39:42.750Z,51.40
2018-02-07T05:42:10.330Z,54.95
2018-02-07T05:44:37.874Z,49.78
2018-02-07T05:47:05.442Z,50.05
2018-02-07T05:49:32.994Z,52.40
2018-02-07T05:52:00.561Z,56.22
2018-02-07T05:54:28.102Z,52.22
2018-02-07T05:56:55.668Z,55.78
2018-02-07T05:59:23.215Z,51.90
2018-02-07T06:01:50.783Z,56.92
2018-02-07T06:04:18.321Z,51.22
2018-02-07T06:06:45.888Z,50.55
2018-02-07T06:09:13.438Z,53.05
2018-02-07T06:11:41.009Z,51.65
2018-02-07T06:14:08.546Z,58.75
2018-02-07T06:16:36.129Z,56.63
2018-02-07T06:19:03.678Z,57.55
2018-02-07T06:21:31.238Z,51.90
2018-02-07T06:23:58.781Z,63.53
2018-02-07T06:26:27.118Z,58.55
2018-02-07T06:28:54.658Z,62.35
2018-02-07T06:52:39.384Z,60.42
2018-02-07T06:55:06.924Z,61.67
2018-02-07T06:57:34.486Z,74.25
2018-02-07T07:00:02.022Z,67.95
2018-02-07T07:02:29.586Z,54.50
2018-02-07T07:04:57.131Z,67.80
2018-02-07T07:07:25.457Z,59.20
2018-02-07T07:09:53.004Z,60.35
2018-02-07T07:12:20.567Z,54.55
2018-02-07T07:14:48.118Z,69.50
2018-02-07T07:17:15.699Z,62.08
2018-02-07T07:19:43.264Z,61.30
2018-02-07T07:22:10.831Z,68.22
2018-02-07T07:24:38.382Z,57.35
2018-02-07T07:27:05.951Z,53.75
2018-02-07T07:29:33.495Z,55.88
2018-02-07T07:32:01.054Z,55.63
2018-02-07T07:34:28.607Z,50.70
2018-02-07T07:36:56.182Z,54.10
2018-02-07T07:39:23.722Z,50.97
2018-02-07T07:41:51.294Z,55.58
2018-02-07T07:44:19.613Z,52.25
2018-02-07T07:46:47.947Z,56.05
2018-02-07T07:49:15.493Z,55.12
2018-02-07T07:51:43.054Z,59.28
2018-02-07T07:54:10.602Z,56.92
2018-02-07T07:56:38.174Z,54.03
2018-02-07T07:59:05.713Z,59.65
2018-02-07T08:01:33.284Z,55.00
2018-02-07T08:04:00.884Z,58.10
2018-02-07T08:06:28.479Z,58.03
2018-02-07T08:08:56.819Z,56.65
2018-02-07T08:11:24.369Z,56.97
2018-02-07T08:13:51.944Z,58.72
2018-02-07T08:16:19.508Z,57.40
2018-02-07T08:18:47.883Z,58.33
2018-02-07T08:21:15.430Z,55.28
2018-02-07T08:23:42.993Z,60.10
2018-02-07T08:26:10.550Z,48.45
2018-02-07T08:28:38.126Z,51.20
2018-02-07T08:31:05.670Z,59.40
2018-02-07T08:33:33.238Z,50.30
2018-02-07T08:36:00.778Z,59.40
2018-02-07T08:38:28.350Z,62.30
2018-02-07T08:40:55.893Z,62.88
2018-02-07T08:43:23.458Z,54.40
2018-02-07T08:45:50.997Z,65.73
2018-02-07T08:48:18.569Z,57.87
2018-02-07T08:50:46.306Z,57.33
2018-02-07T08:53:13.987Z,61.00
2018-02-07T08:55:42.357Z,55.12
2018-02-07T08:58:10.039Z,60.55
2018-02-07T09:00:37.582Z,68.40
2018-02-07T09:03:05.378Z,51.78
2018-02-07T09:05:32.926Z,54.85
2018-02-07T09:08:00.491Z,56.90
2018-02-07T09:10:28.026Z,64.30
2018-02-07T09:12:55.590Z,63.08
2018-02-07T09:15:23.386Z,56.58
2018-02-07T09:17:51.206Z,57.05
2018-02-07T09:20:18.752Z,62.27
2018-02-07T09:22:47.129Z,57.08
2018-02-07T09:25:15.438Z,58.40
2018-02-07T09:27:43.085Z,57.93
2018-02-07T09:30:10.623Z,62.80
2018-02-07T09:32:38.953Z,53.85
2018-02-07T09:35:06.494Z,57.70
2018-02-07T09:37:34.071Z,56.20
2018-02-07T09:40:01.727Z,56.97
2018-02-07T09:42:29.290Z,51.80
2018-02-07T09:44:56.834Z,53.37
2018-02-07T09:47:24.395Z,52.75
2018-02-07T09:49:51.977Z,58.60
2018-02-07T09:52:19.542Z,51.22
2018-02-07T09:54:47.133Z,53.22
2018-02-07T09:57:14.737Z,58.83
2018-02-07T09:59:42.279Z,54.78
2018-02-07T10:02:10.629Z,47.90
2018-02-07T10:04:39.001Z,51.80
2018-02-07T10:07:06.544Z,57.93
2018-02-07T10:09:34.085Z,50.77
2018-02-07T10:12:01.627Z,48.37
2018-02-07T10:14:29.193Z,53.27
2018-02-07T10:16:56.730Z,56.80
2018-02-07T10:19:25.159Z,56.40
2018-02-07T10:21:52.697Z,51.77
2018-02-07T10:24:20.246Z,50.63
2018-02-07T10:26:47.793Z,45.87
2018-02-07T10:29:15.376Z,46.83
2018-02-07T10:31:42.933Z,49.53
2018-02-07T10:34:10.511Z,49.60
2018-02-07T10:36:38.810Z,44.03
2018-02-07T10:39:06.374Z,44.13
2018-02-07T10:41:33.910Z,45.33
2018-02-07T10:44:01.506Z,49.83
2018-02-07T10:46:29.038Z,45.80
2018-02-07T10:48:56.602Z,48.47
2018-02-07T10:51:24.165Z,47.13
2018-02-07T10:53:51.807Z,44.80
2018-02-07T10:56:19.370Z,52.17
2018-02-07T10:58:47.082Z,45.77
2018-02-07T11:01:14.642Z,48.40
2018-02-07T11:03:43.010Z,49.77
2018-02-07T11:06:10.575Z,47.83
2018-02-07T11:08:38.106Z,45.57
2018-02-07T11:11:05.663Z,45.27
2018-02-07T11:13:33.410Z,40.20
2018-02-07T11:16:01.225Z,47.83
2018-02-07T11:18:29.546Z,49.53
2018-02-07T11:20:57.097Z,46.43
2018-02-07T11:23:24.637Z,45.75
2018-02-07T11:25:52.958Z,51.57
2018-02-07T11:28:20.554Z,49.50
2018-02-07T11:30:48.114Z,49.17
2018-02-07T11:33:15.691Z,49.00
2018-02-07T11:35:43.273Z,47.87
2018-02-07T11:38:10.807Z,50.13
2018-02-07T11:40:38.363Z,46.10
2018-02-07T11:43:05.895Z,44.60
2018-02-07T11:45:33.486Z,49.92
2018-02-07T11:48:01.014Z,54.87
2018-02-07T11:50:28.573Z,59.03
2018-02-07T11:52:56.106Z,52.37
2018-02-07T11:55:23.633Z,51.40
2018-02-07T11:57:51.962Z,48.53
2018-02-07T12:00:19.509Z,49.53
2018-02-07T12:02:47.129Z,47.73
2018-02-07T12:05:15.427Z,45.60
2018-02-07T12:07:42.981Z,49.67
2018-02-07T12:10:10.532Z,46.30
2018-02-07T12:12:38.859Z,57.53
2018-02-07T12:15:06.406Z,54.28
2018-02-07T12:17:33.958Z,45.00
2018-02-07T12:20:01.490Z,45.07
2018-02-07T12:22:29.818Z,54.20
2018-02-07T12:24:58.122Z,49.40
2018-02-07T12:27:25.682Z,54.87
2018-02-07T12:29:53.990Z,51.87
2018-02-07T12:32:22.323Z,48.83
2018-02-07T12:34:49.841Z,48.27
2018-02-07T12:37:17.374Z,49.10
2018-02-07T12:39:45.704Z,46.53
2018-02-07T12:42:13.250Z,48.10
2018-02-07T12:44:40.798Z,47.43
2018-02-07T12:47:08.322Z,53.10
2018-02-07T12:49:36.673Z,45.83
2018-02-07T12:52:04.200Z,55.50
2018-02-07T12:54:31.754Z,44.87
2018-02-07T12:56:59.290Z,46.20
2018-02-07T12:59:27.617Z,47.60
2018-02-07T13:01:55.917Z,53.90
2018-02-07T13:04:23.497Z,52.63
2018-02-07T13:06:51.090Z,48.13
2018-02-07T13:09:19.385Z,42.33
2018-02-07T13:11:46.916Z,53.87
2018-02-07T13:14:14.464Z,52.50
2018-02-07T13:16:42.758Z,48.00
2018-02-07T13:19:10.305Z,54.83
2018-02-07T13:21:38.594Z,49.00
2018-02-07T13:24:06.146Z,45.00
2018-02-07T13:26:33.682Z,48.70
2018-02-07T13:29:02.026Z,50.87
2018-02-07T13:31:30.388Z,44.80
2018-02-07T13:33:57.923Z,42.27
2018-02-07T13:36:26.206Z,50.40
2018-02-07T13:38:53.777Z,47.77
2018-02-07T13:41:21.310Z,57.17
2018-02-07T13:43:49.619Z,46.07
2018-02-07T13:46:17.218Z,48.10
2018-02-07T13:48:44.785Z,44.33
2018-02-07T13:51:12.326Z,49.20
2018-02-07T13:53:39.874Z,49.73
2018-02-07T13:56:07.461Z,48.10
2018-02-07T13:58:35.002Z,51.40
2018-02-07T14:01:02.538Z,49.43
2018-02-07T14:03:30.089Z,50.83
2018-02-07T14:05:57.623Z,46.00
2018-02-07T14:08:25.946Z,50.60
2018-02-07T14:10:53.527Z,49.50
2018-02-07T14:13:21.890Z,57.00
2018-02-07T14:15:49.423Z,51.00
2018-02-07T14:18:16.988Z,48.23
2018-02-07T14:20:44.527Z,51.63
2018-02-07T14:23:12.841Z,48.03
2018-02-07T14:25:40.370Z,46.27
2018-02-07T14:28:07.961Z,50.10
2018-02-07T14:30:35.486Z,46.10
2018-02-07T14:33:03.046Z,50.77
2018-02-07T14:35:30.587Z,51.77
2018-02-07T14:37:58.916Z,56.20
2018-02-07T14:40:26.447Z,44.50
2018-02-07T14:42:54.081Z,44.53
2018-02-07T14:45:22.382Z,50.17
2018-02-07T14:47:49.922Z,45.47
2018-02-07T14:50:18.252Z,53.00
2018-02-07T14:52:45.780Z,51.23
2018-02-07T14:55:14.140Z,44.67
2018-02-07T14:57:42.436Z,45.00
2018-02-07T15:00:09.997Z,42.87
2018-02-07T15:02:37.530Z,46.97
2018-02-07T15:05:05.091Z,52.27
2018-02-07T15:07:33.398Z,45.30
2018-02-07T15:10:00.955Z,50.97
2018-02-07T15:12:28.491Z,43.00
2018-02-07T15:14:56.815Z,45.40
2018-02-07T15:17:24.353Z,48.93
2018-02-07T15:19:51.915Z,48.47
2018-02-07T15:22:19.444Z,49.47
2018-02-07T15:24:47.762Z,47.07
2018-02-07T15:27:15.305Z,53.73
2018-02-07T15:29:42.870Z,47.83
2018-02-07T15:32:10.404Z,45.97
2018-02-07T15:34:38.743Z,46.70
2018-02-07T15:37:06.314Z,45.77
2018-02-07T15:39:33.919Z,46.67
2018-02-07T15:42:01.469Z,42.47
2018-02-07T15:44:29.799Z,45.97
2018-02-07T15:46:57.327Z,50.23
2018-02-07T15:49:24.877Z,51.43
2018-02-07T15:51:52.406Z,53.00
2018-02-07T15:54:19.961Z,49.30
2018-02-07T15:56:47.481Z,46.70
2018-02-07T15:59:15.029Z,50.70
2018-02-07T16:01:42.562Z,43.60
2018-02-07T16:04:10.890Z,44.00
2018-02-07T16:06:38.417Z,58.20
2018-02-07T16:09:06.067Z,42.33
2018-02-07T16:11:34.362Z,49.27
2018-02-07T16:14:01.920Z,44.90
2018-02-07T16:16:29.483Z,57.57
2018-02-07T16:18:57.056Z,50.93
2018-02-07T16:21:24.586Z,48.83
2018-02-07T16:23:52.907Z,50.90
2018-02-07T16:26:20.442Z,48.67
2018-02-07T16:28:47.990Z,51.90
2018-02-07T16:31:15.534Z,48.63
2018-02-07T16:33:43.853Z,56.57
2018-02-07T16:36:11.391Z,45.47
2018-02-07T16:38:38.950Z,43.67
2018-02-07T16:41:06.474Z,45.80
2018-02-07T16:43:34.034Z,54.37
2018-02-07T16:46:01.570Z,48.80
2018-02-07T16:48:29.126Z,44.80
2018-02-07T16:50:56.665Z,44.20
2018-02-07T16:53:24.219Z,47.50
2018-02-07T16:55:51.749Z,60.67
2018-02-07T16:58:20.046Z,56.47
2018-02-07T17:00:47.602Z,60.83
2018-02-07T17:03:15.133Z,70.10
2018-02-07T17:05:43.457Z,64.57
2018-02-07T17:08:10.986Z,65.80
2018-02-07T17:10:39.309Z,57.63
2018-02-07T17:13:06.842Z,67.00
2018-02-07T17:15:34.401Z,64.07
2018-02-07T17:18:01.938Z,65.23
2018-02-07T17:20:30.278Z,65.00
2018-02-07T17:22:57.815Z,62.80
2018-02-07T17:25:25.385Z,67.30
2018-02-07T17:27:52.919Z,63.20
2018-02-07T17:30:20.485Z,65.20
2018-02-07T17:32:48.022Z,64.37
2018-02-07T17:35:15.581Z,68.80
2018-02-07T17:37:43.118Z,63.17
2018-02-07T17:40:11.443Z,70.07
2018-02-07T17:42:38.972Z,65.70
2018-02-07T17:45:06.551Z,60.20
2018-02-07T17:47:34.079Z,60.63
2018-02-07T17:50:02.404Z,59.20
2018-02-07T17:52:30.183Z,62.27
2018-02-07T17:54:57.735Z,60.23
2018-02-07T17:57:25.274Z,60.00
2018-02-07T17:59:52.826Z,77.73
2018-02-07T18:02:20.721Z,69.30
2018-02-07T18:04:49.097Z,67.40
2018-02-07T18:07:16.625Z,65.00
2018-02-07T18:09:44.980Z,78.83
2018-02-07T18:12:12.505Z,59.73
2018-02-07T18:14:40.050Z,62.23
2018-02-07T18:17:07.779Z,66.67
2018-02-07T18:19:36.097Z,62.77
2018-02-07T18:22:03.733Z,55.50
2018-02-07T18:24:31.308Z,70.93
2018-02-07T18:26:58.888Z,65.17
2018-02-07T18:29:27.261Z,67.13
2018-02-07T18:31:54.794Z,63.07
2018-02-07T18:34:22.346Z,64.67
2018-02-07T18:36:49.906Z,59.23
2018-02-07T18:39:18.235Z,68.40
2018-02-07T18:41:45.824Z,57.77
2018-02-07T18:44:14.162Z,64.10
2018-02-07T18:46:41.850Z,62.97
2018-02-07T18:49:09.422Z,59.90
2018-02-07T18:51:36.977Z,68.77
2018-02-07T18:54:05.323Z,68.20
2018-02-07T18:56:32.864Z,73.73
2018-02-07T18:59:00.429Z,71.77
2018-02-07T19:01:27.957Z,79.07
2018-02-07T19:03:56.281Z,78.43
2018-02-07T19:06:23.815Z,76.87
2018-02-07T19:08:51.357Z,77.23
2018-02-07T19:11:19.676Z,82.40
2018-02-07T19:13:47.228Z,71.47
2018-02-07T19:16:14.795Z,80.30
2018-02-07T19:18:42.532Z,66.80
2018-02-07T19:21:10.127Z,74.37
2018-02-07T19:23:37.662Z,78.03
2018-02-07T19:26:05.508Z,80.93
2018-02-07T19:28:33.078Z,74.47
2018-02-07T19:31:00.645Z,64.37
2018-02-07T19:33:28.185Z,77.23
2018-02-07T19:35:55.771Z,77.00
2018-02-07T19:38:23.428Z,73.50
2018-02-07T19:40:51.002Z,78.50
2018-02-07T19:43:18.586Z,82.00
2018-02-07T19:45:47.010Z,73.37
2018-02-07T19:48:14.551Z,73.03
2018-02-07T19:50:42.882Z,81.13
2018-02-07T19:53:10.422Z,74.20
2018-02-07T19:55:37.983Z,72.53
2018-02-07T19:58:05.510Z,82.67
2018-02-07T20:00:33.858Z,79.57
2018-02-07T20:03:01.419Z,77.33
2018-02-07T20:05:29.062Z,78.83
2018-02-07T20:07:56.593Z,74.37
2018-02-07T20:10:24.155Z,71.03
2018-02-07T20:12:51.701Z,79.67
2018-02-07T20:15:20.026Z,79.17
2018-02-07T20:17:47.568Z,79.68
2018-02-07T20:20:15.132Z,76.77
2018-02-07T20:22:42.678Z,69.30
2018-02-07T20:25:10.244Z,80.37
2018-02-07T20:27:37.793Z,72.17
2018-02-07T20:30:05.486Z,76.15
2018-02-07T20:32:33.046Z,79.37
2018-02-07T20:35:00.610Z,70.13
2018-02-07T20:37:28.154Z,73.27
2018-02-07T20:39:55.892Z,73.03
2018-02-07T20:42:23.445Z,79.50
2018-02-07T20:44:51.050Z,80.40
2018-02-07T20:47:18.590Z,86.47
2018-02-07T20:49:46.212Z,81.15
2018-02-07T20:52:13.797Z,79.53
2018-02-07T20:54:41.366Z,81.53
2018-02-07T20:57:08.915Z,78.70
2018-02-07T20:59:36.492Z,69.37
2018-02-07T21:02:04.158Z,91.15
2018-02-07T21:04:31.920Z,84.07
2018-02-07T21:06:59.462Z,82.22
2018-02-07T21:09:27.015Z,84.60
2018-02-07T21:11:54.583Z,94.27
2018-02-07T21:14:22.295Z,81.32
2018-02-07T21:16:49.873Z,92.88
2018-02-07T21:19:17.733Z,78.12
2018-02-07T21:21:45.356Z,84.27
2018-02-07T21:24:12.894Z,85.87
2018-02-07T21:26:40.459Z,85.07
2018-02-07T21:29:07.997Z,89.77
2018-02-07T21:31:36.326Z,75.50
2018-02-07T21:34:03.878Z,81.80
2018-02-07T21:36:31.442Z,77.18
2018-02-07T21:38:58.993Z,89.07
2018-02-07T21:41:26.567Z,92.07
2018-02-07T21:43:54.134Z,86.30
2018-02-07T21:46:21.730Z,87.40
2018-02-07T21:48:50.083Z,84.20
2018-02-07T21:51:18.458Z,93.70
2018-02-07T21:53:46.087Z,72.47
2018-02-07T21:56:13.670Z,84.82
2018-02-07T21:58:41.211Z,78.00
2018-02-07T22:01:09.541Z,84.15
2018-02-07T22:03:37.850Z,83.40
2018-02-07T22:06:05.449Z,81.78
2018-02-07T22:08:32.986Z,84.57
2018-02-07T22:11:00.557Z,80.57
2018-02-07T22:13:28.108Z,83.47
2018-02-07T22:15:55.692Z,83.47
2018-02-07T22:18:23.231Z,67.12
2018-02-07T22:20:50.845Z,75.55
2018-02-07T22:23:19.142Z,86.63
2018-02-07T22:25:46.713Z,84.93
2018-02-07T22:28:14.309Z,83.75
2018-02-07T22:30:41.870Z,83.17
2018-02-07T22:33:09.483Z,84.03
2018-02-07T22:35:37.802Z,81.97
2018-02-07T22:38:05.335Z,91.10
2018-02-07T22:40:32.911Z,69.40
2018-02-07T22:43:00.454Z,80.30
2018-02-07T22:45:28.842Z,84.87
2018-02-07T22:47:56.426Z,82.27
2018-02-07T22:50:24.901Z,72.47
2018-02-07T22:52:52.426Z,84.97
2018-02-07T22:55:20.142Z,79.80
2018-02-07T22:57:47.682Z,81.87
2018-02-07T23:00:15.262Z,80.30
2018-02-07T23:02:43.789Z,77.73
2018-02-07T23:05:11.349Z,71.87
2018-02-07T23:07:38.895Z,77.50
2018-02-07T23:10:06.469Z,83.27
2018-02-07T23:12:34.002Z,74.23
2018-02-07T23:15:01.559Z,70.43
2018-02-07T23:17:29.093Z,81.63
2018-02-07T23:19:56.632Z,80.30
2018-02-07T23:22:24.196Z,75.63
2018-02-07T23:24:51.730Z,75.40
2018-02-07T23:27:19.286Z,79.13
2018-02-07T23:29:46.827Z,71.97
2018-02-07T23:32:15.165Z,71.23
2018-02-07T23:34:42.714Z,73.27
2018-02-07T23:37:10.286Z,76.60
2018-02-07T23:39:37.824Z,80.63
2018-02-07T23:42:05.379Z,80.40
2018-02-07T23:44:32.914Z,73.80
2018-02-07T23:47:00.484Z,78.30
2018-02-07T23:49:28.024Z,83.27
2018-02-07T23:51:56.358Z,80.00
2018-02-07T23:54:23.885Z,81.97
2018-02-07T23:56:51.438Z,82.00
2018-02-07T23:59:19.009Z,83.60
